createdAt,value
2017-09-25T00:00:43.537Z,96.50
2017-09-25T00:03:11.828Z,96.80
2017-09-25T00:05:39.711Z,96.10
2017-09-25T00:08:08.128Z,97.10
2017-09-25T00:10:35.668Z,97.70
2017-09-25T00:13:03.167Z,98.20
2017-09-25T00:15:30.716Z,98.40
2017-09-25T00:17:58.227Z,98.20
2017-09-25T00:20:26.163Z,98.30
2017-09-25T00:22:53.697Z,97.70
2017-09-25T00:25:21.598Z,97.00
2017-09-25T00:27:49.216Z,96.70
2017-09-25T00:30:16.840Z,97.10
2017-09-25T00:32:44.448Z,97.20
2017-09-25T00:35:12.029Z,97.20
2017-09-25T00:37:39.526Z,97.20
2017-09-25T00:40:08.020Z,98.30
2017-09-25T00:42:35.665Z,97.90
2017-09-25T00:45:03.160Z,97.20
2017-09-25T00:47:30.710Z,97.80
2017-09-25T00:49:59.571Z,97.20
2017-09-25T00:52:38.768Z,97.50
2017-09-25T00:55:18.167Z,97.80
2017-09-25T00:57:45.716Z,97.10
2017-09-25T01:03:16.091Z,97.30
2017-09-25T01:05:44.634Z,98.10
2017-09-25T01:08:13.992Z,98.20
2017-09-25T01:10:41.803Z,98.70
2017-09-25T01:13:10.066Z,98.50
2017-09-25T01:15:38.145Z,97.90
2017-09-25T01:18:06.222Z,97.80
2017-09-25T01:20:34.549Z,98.80
2017-09-25T01:23:03.110Z,98.70
2017-09-25T01:25:31.365Z,98.20
2017-09-25T01:27:59.735Z,98.40
2017-09-25T01:30:28.241Z,97.90
2017-09-25T01:32:57.101Z,98.70
2017-09-25T01:35:25.477Z,98.00
2017-09-25T01:37:53.400Z,97.80
2017-09-25T01:40:22.071Z,99.10
2017-09-25T01:42:50.435Z,98.80
2017-09-25T01:45:19.299Z,98.20
2017-09-25T01:47:47.986Z,98.80
2017-09-25T01:50:16.366Z,98.40
2017-09-25T01:52:45.021Z,98.00
2017-09-25T01:55:13.329Z,98.10
2017-09-25T01:57:41.399Z,98.70
2017-09-25T02:00:09.247Z,99.00
2017-09-25T02:02:37.291Z,99.30
2017-09-25T02:05:05.356Z,99.40
2017-09-25T02:07:33.853Z,98.70
2017-09-25T02:10:01.761Z,98.90
2017-09-25T02:12:30.365Z,98.50
2017-09-25T02:14:58.517Z,98.10
2017-09-25T02:17:26.250Z,98.30
2017-09-25T02:19:54.570Z,98.50
2017-09-25T02:22:23.100Z,98.00
2017-09-25T02:24:51.250Z,97.80
2017-09-25T02:27:19.672Z,97.90
2017-09-25T02:29:47.585Z,99.50
2017-09-25T02:32:16.189Z,98.90
2017-09-25T02:34:44.171Z,98.60
2017-09-25T02:37:12.126Z,97.80
2017-09-25T02:39:40.188Z,96.80
2017-09-25T02:42:08.586Z,98.60
2017-09-25T02:44:36.486Z,99.50
2017-09-25T02:47:05.391Z,99.40
2017-09-25T02:49:33.527Z,98.40
2017-09-25T02:52:01.742Z,98.20
2017-09-25T02:54:30.008Z,98.20
2017-09-25T02:56:58.347Z,98.80
2017-09-25T02:59:26.515Z,98.60
2017-09-25T03:01:55.681Z,98.60
2017-09-25T03:04:25.006Z,99.20
2017-09-25T03:06:54.030Z,99.20
2017-09-25T03:09:21.920Z,99.90
2017-09-25T03:11:50.092Z,99.90
2017-09-25T03:14:18.168Z,99.90
2017-09-25T03:16:46.013Z,99.90
2017-09-25T03:19:14.135Z,99.60
2017-09-25T03:21:42.507Z,99.30
2017-09-25T03:24:11.891Z,98.50
2017-09-25T03:26:41.722Z,99.80
2017-09-25T03:29:11.633Z,98.40
2017-09-25T03:31:39.524Z,98.90
2017-09-25T03:34:08.512Z,99.10
2017-09-25T03:36:37.163Z,99.00
2017-09-25T03:39:05.781Z,98.10
2017-09-25T03:41:34.025Z,99.50
2017-09-25T03:44:02.026Z,99.90
2017-09-25T03:46:30.958Z,99.90
2017-09-25T03:48:59.330Z,99.90
2017-09-25T03:51:27.140Z,99.90
2017-09-25T03:53:56.419Z,99.90
2017-09-25T03:56:24.950Z,99.90
2017-09-25T03:58:54.213Z,99.90
2017-09-25T04:01:22.607Z,98.80
2017-09-25T04:03:50.340Z,99.90
2017-09-25T04:06:19.351Z,99.70
2017-09-25T04:08:48.227Z,99.00
2017-09-25T04:11:18.119Z,99.70
2017-09-25T04:13:47.725Z,99.40
2017-09-25T04:16:17.223Z,99.80
2017-09-25T04:18:46.015Z,99.90
2017-09-25T04:21:14.295Z,99.90
2017-09-25T04:23:42.276Z,99.60
2017-09-25T04:26:10.330Z,99.80
2017-09-25T04:28:38.034Z,99.20
2017-09-25T04:31:06.172Z,98.90
2017-09-25T04:33:33.932Z,98.10
2017-09-25T04:36:01.704Z,98.00
2017-09-25T04:38:29.674Z,98.10
2017-09-25T04:40:57.445Z,98.30
2017-09-25T04:43:25.262Z,98.40
2017-09-25T04:45:52.965Z,98.70
2017-09-25T04:48:20.735Z,98.90
2017-09-25T04:50:49.049Z,98.60
2017-09-25T04:53:18.071Z,99.70
2017-09-25T04:55:47.075Z,99.30
2017-09-25T04:58:14.975Z,99.20
2017-09-25T05:00:43.461Z,99.30
2017-09-25T05:03:11.277Z,99.30
2017-09-25T05:05:39.886Z,99.30
2017-09-25T05:08:08.042Z,99.50
2017-09-25T05:10:38.070Z,99.80
2017-09-25T05:13:06.773Z,99.90
2017-09-25T05:15:35.086Z,98.80
2017-09-25T05:18:03.373Z,98.70
2017-09-25T05:20:31.851Z,99.70
2017-09-25T05:22:59.996Z,99.90
2017-09-25T05:25:28.045Z,99.90
2017-09-25T05:27:56.251Z,99.70
2017-09-25T05:30:24.544Z,99.20
2017-09-25T05:32:52.912Z,99.80
2017-09-25T05:35:21.303Z,99.50
2017-09-25T05:37:49.497Z,99.70
2017-09-25T05:40:17.608Z,99.90
2017-09-25T05:42:46.169Z,99.60
2017-09-25T05:45:15.305Z,99.90
2017-09-25T05:47:43.441Z,99.60
2017-09-25T05:50:11.575Z,99.20
2017-09-25T05:52:39.274Z,99.90
2017-09-25T05:55:07.849Z,99.90
2017-09-25T05:57:37.286Z,98.10
2017-09-25T06:00:06.396Z,98.90
2017-09-25T06:02:34.236Z,97.30
2017-09-25T06:06:53.127Z,92.10
2017-09-25T06:09:20.625Z,88.70
2017-09-25T06:11:48.547Z,89.70
2017-09-25T06:14:16.079Z,90.30
2017-09-25T06:16:44.353Z,86.70
2017-09-25T06:19:11.884Z,85.40
2017-09-25T06:21:39.380Z,81.10
2017-09-25T06:24:07.651Z,79.30
2017-09-25T06:26:35.204Z,80.00
2017-09-25T06:29:03.476Z,80.90
2017-09-25T06:31:31.796Z,82.20
2017-09-25T06:33:59.458Z,72.80
2017-09-25T06:36:26.959Z,72.50
2017-09-25T06:38:54.657Z,73.00
2017-09-25T06:41:22.963Z,73.40
2017-09-25T06:43:50.505Z,69.60
2017-09-25T06:46:18.032Z,68.20
2017-09-25T06:48:45.529Z,68.40
2017-09-25T06:51:13.081Z,67.30
2017-09-25T06:53:40.585Z,64.30
2017-09-25T06:56:08.067Z,65.00
2017-09-25T06:58:35.603Z,63.30
2017-09-25T07:01:03.188Z,61.40
2017-09-25T07:03:31.494Z,59.80
2017-09-25T07:05:58.999Z,58.60
2017-09-25T07:08:26.556Z,58.00
2017-09-25T07:10:54.076Z,57.50
2017-09-25T07:13:21.635Z,60.30
2017-09-25T07:15:49.189Z,61.50
2017-09-25T07:18:16.892Z,60.30
2017-09-25T07:20:44.462Z,59.50
2017-09-25T07:23:11.970Z,58.30
2017-09-25T07:25:39.459Z,57.40
2017-09-25T07:28:06.984Z,55.30
2017-09-25T07:30:34.875Z,55.50
2017-09-25T07:33:02.805Z,55.00
2017-09-25T07:35:30.392Z,56.90
2017-09-25T07:37:57.981Z,58.10
2017-09-25T07:40:25.509Z,57.00
2017-09-25T07:42:53.052Z,55.20
2017-09-25T07:45:20.568Z,54.90
2017-09-25T07:47:48.068Z,51.60
2017-09-25T07:50:15.618Z,50.00
2017-09-25T07:52:43.553Z,48.40
2017-09-25T07:55:11.446Z,47.70
2017-09-25T07:57:38.964Z,49.40
2017-09-25T08:00:06.893Z,47.90
2017-09-25T08:02:34.450Z,48.30
2017-09-25T08:05:02.357Z,45.40
2017-09-25T08:07:30.094Z,47.50
2017-09-25T08:09:58.066Z,45.50
2017-09-25T08:12:25.589Z,45.60
2017-09-25T08:14:54.002Z,46.20
2017-09-25T08:17:21.499Z,44.40
2017-09-25T08:19:49.024Z,43.50
2017-09-25T08:22:16.540Z,45.60
2017-09-25T08:24:44.070Z,45.00
2017-09-25T08:27:11.616Z,47.60
2017-09-25T08:29:39.359Z,46.60
2017-09-25T08:32:07.674Z,46.90
2017-09-25T08:34:35.217Z,48.00
2017-09-25T08:37:03.102Z,48.40
2017-09-25T08:39:31.052Z,51.10
2017-09-25T08:41:58.553Z,52.60
2017-09-25T08:44:26.054Z,53.90
2017-09-25T08:46:53.598Z,55.50
2017-09-25T08:49:21.124Z,55.30
2017-09-25T08:51:49.424Z,52.80
2017-09-25T08:54:16.939Z,51.30
2017-09-25T08:56:44.871Z,51.50
2017-09-25T08:59:12.774Z,49.30
2017-09-25T09:01:40.745Z,49.50
2017-09-25T09:04:08.288Z,48.60
2017-09-25T09:06:36.212Z,49.20
2017-09-25T09:09:03.716Z,45.60
2017-09-25T09:11:36.951Z,42.90
2017-09-25T09:14:05.266Z,47.20
2017-09-25T09:16:32.838Z,46.20
2017-09-25T09:19:00.341Z,48.90
2017-09-25T09:21:28.256Z,46.70
2017-09-25T09:23:56.525Z,46.80
2017-09-25T09:26:24.100Z,46.60
2017-09-25T09:28:51.991Z,48.20
2017-09-25T09:31:19.483Z,50.70
2017-09-25T09:33:47.772Z,48.20
2017-09-25T09:36:15.267Z,48.20
2017-09-25T09:38:42.783Z,46.80
2017-09-25T09:41:10.285Z,46.50
2017-09-25T09:43:37.895Z,47.60
2017-09-25T09:46:06.209Z,45.40
2017-09-25T09:48:33.720Z,44.00
2017-09-25T09:51:02.035Z,45.60
2017-09-25T09:53:29.528Z,46.60
2017-09-25T09:55:57.055Z,46.10
2017-09-25T09:58:24.555Z,43.80
2017-09-25T10:00:52.080Z,42.20
2017-09-25T10:03:19.830Z,41.60
2017-09-25T10:05:47.379Z,39.30
2017-09-25T10:08:14.924Z,39.70
2017-09-25T10:10:42.424Z,38.80
2017-09-25T10:13:09.928Z,40.30
2017-09-25T10:15:38.251Z,39.00
2017-09-25T10:18:05.799Z,36.20
2017-09-25T10:20:33.284Z,35.70
2017-09-25T10:23:01.024Z,40.10
2017-09-25T10:25:28.516Z,39.40
2017-09-25T10:27:56.033Z,40.50
2017-09-25T10:30:23.526Z,38.20
2017-09-25T10:32:51.064Z,40.30
2017-09-25T10:35:18.616Z,41.50
2017-09-25T10:37:46.520Z,42.90
2017-09-25T10:40:14.052Z,40.00
2017-09-25T10:42:41.980Z,38.10
2017-09-25T10:45:10.236Z,35.40
2017-09-25T10:47:37.798Z,34.30
2017-09-25T10:50:05.719Z,33.20
2017-09-25T10:52:33.284Z,32.20
2017-09-25T10:55:00.780Z,30.70
2017-09-25T10:57:28.289Z,30.40
2017-09-25T10:59:55.856Z,29.70
2017-09-25T11:02:24.492Z,30.60
2017-09-25T11:04:52.019Z,31.30
2017-09-25T11:07:19.520Z,33.20
2017-09-25T11:09:47.827Z,31.70
2017-09-25T11:12:15.728Z,28.80
2017-09-25T11:14:43.766Z,28.50
2017-09-25T11:17:11.288Z,27.00
2017-09-25T11:19:38.812Z,24.80
2017-09-25T11:22:06.750Z,26.00
2017-09-25T11:24:34.426Z,28.70
2017-09-25T11:27:02.720Z,27.90
2017-09-25T11:29:30.215Z,27.20
2017-09-25T11:31:58.475Z,27.90
2017-09-25T11:34:26.396Z,26.20
2017-09-25T11:36:54.292Z,29.20
2017-09-25T11:39:21.823Z,30.90
2017-09-25T11:41:49.328Z,30.10
2017-09-25T11:44:16.855Z,30.90
2017-09-25T11:46:44.396Z,28.80
2017-09-25T11:49:11.903Z,29.70
2017-09-25T11:51:39.789Z,30.00
2017-09-25T11:54:08.148Z,26.70
2017-09-25T11:56:36.101Z,27.30
2017-09-25T11:59:04.206Z,27.20
2017-09-25T12:01:32.519Z,29.00
2017-09-25T12:04:00.045Z,28.90
2017-09-25T12:06:27.958Z,28.50
2017-09-25T12:08:55.468Z,31.30
2017-09-25T12:11:23.019Z,32.00
2017-09-25T12:13:51.356Z,35.10
2017-09-25T12:16:19.280Z,32.80
2017-09-25T12:18:47.980Z,34.90
2017-09-25T12:21:15.964Z,36.90
2017-09-25T12:23:43.876Z,34.30
2017-09-25T12:26:11.819Z,30.90
2017-09-25T12:28:39.378Z,32.80
2017-09-25T12:31:07.280Z,30.30
2017-09-25T12:33:35.172Z,28.50
2017-09-25T12:36:02.746Z,29.90
2017-09-25T12:38:30.311Z,31.30
2017-09-25T12:40:58.196Z,30.30
2017-09-25T12:43:25.738Z,30.60
2017-09-25T12:45:53.233Z,34.70
2017-09-25T12:48:21.503Z,32.80
2017-09-25T12:50:49.044Z,33.70
2017-09-25T12:53:16.576Z,33.00
2017-09-25T12:55:44.072Z,31.50
2017-09-25T12:58:12.374Z,34.80
2017-09-25T13:00:40.625Z,34.70
2017-09-25T13:03:08.129Z,34.00
2017-09-25T13:05:36.076Z,30.90
2017-09-25T13:08:03.802Z,30.00
2017-09-25T13:10:31.355Z,30.30
2017-09-25T13:12:58.865Z,31.60
2017-09-25T13:15:27.765Z,34.80
2017-09-25T13:17:56.068Z,36.20
2017-09-25T13:20:24.284Z,34.20
2017-09-25T13:22:51.819Z,30.80
2017-09-25T13:25:19.340Z,30.30
2017-09-25T13:27:47.350Z,31.10
2017-09-25T13:30:15.270Z,31.50
2017-09-25T13:32:43.539Z,31.80
2017-09-25T13:35:11.551Z,31.20
2017-09-25T13:37:39.096Z,30.30
2017-09-25T13:40:07.039Z,27.60
2017-09-25T13:42:35.801Z,27.40
2017-09-25T13:45:03.695Z,26.50
2017-09-25T13:47:31.372Z,26.30
2017-09-25T13:49:59.660Z,26.50
2017-09-25T13:52:27.600Z,25.30
2017-09-25T13:54:55.514Z,27.00
2017-09-25T13:57:23.079Z,28.40
2017-09-25T14:02:23.413Z,29.50
2017-09-25T14:04:51.299Z,31.40
2017-09-25T14:07:18.838Z,33.20
2017-09-25T14:09:46.346Z,33.80
2017-09-25T14:12:14.345Z,32.70
2017-09-25T14:14:41.880Z,34.20
2017-09-25T14:17:09.593Z,35.40
2017-09-25T14:19:37.492Z,35.80
2017-09-25T14:22:05.756Z,36.20
2017-09-25T14:24:33.672Z,37.30
2017-09-25T14:27:01.578Z,38.20
2017-09-25T14:29:29.506Z,38.70
2017-09-25T14:31:57.803Z,38.00
2017-09-25T14:34:25.332Z,39.20
2017-09-25T14:36:53.272Z,38.40
2017-09-25T14:39:20.764Z,37.30
2017-09-25T14:41:48.656Z,38.80
2017-09-25T14:44:16.601Z,40.50
2017-09-25T14:46:44.853Z,42.00
2017-09-25T14:49:12.349Z,43.80
2017-09-25T14:51:39.881Z,43.10
2017-09-25T14:54:08.312Z,44.50
2017-09-25T14:56:36.384Z,44.00
2017-09-25T14:59:05.143Z,44.50
2017-09-25T15:01:33.418Z,46.90
2017-09-25T15:04:01.300Z,49.10
2017-09-25T15:06:29.223Z,49.30
2017-09-25T15:08:56.772Z,50.10
2017-09-25T15:11:24.360Z,50.50
2017-09-25T15:13:51.859Z,49.50
2017-09-25T15:16:19.847Z,48.30
2017-09-25T15:18:48.370Z,45.70
2017-09-25T15:21:16.633Z,45.80
2017-09-25T15:23:45.710Z,45.30
2017-09-25T15:26:13.660Z,43.90
2017-09-25T15:28:41.580Z,43.70
2017-09-25T15:31:10.003Z,45.30
2017-09-25T15:33:37.764Z,44.50
2017-09-25T15:36:05.264Z,46.50
2017-09-25T15:38:32.767Z,47.90
2017-09-25T15:41:00.304Z,48.70
2017-09-25T15:43:27.828Z,50.30
2017-09-25T15:45:55.315Z,51.60
2017-09-25T15:48:23.626Z,53.30
2017-09-25T15:50:51.557Z,52.80
2017-09-25T15:53:19.560Z,53.10
2017-09-25T15:55:48.240Z,54.30
2017-09-25T15:58:15.785Z,54.30
2017-09-25T16:00:44.041Z,53.30
2017-09-25T16:03:11.572Z,54.50
2017-09-25T16:05:39.129Z,55.00
2017-09-25T16:08:07.026Z,55.50
2017-09-25T16:10:34.919Z,56.50
2017-09-25T16:13:03.223Z,57.60
2017-09-25T16:15:31.513Z,56.90
2017-09-25T16:17:59.401Z,56.30
2017-09-25T16:20:27.693Z,56.60
2017-09-25T16:22:55.232Z,56.30
2017-09-25T16:25:22.772Z,56.50
2017-09-25T16:27:50.299Z,55.70
2017-09-25T16:30:18.196Z,55.90
2017-09-25T16:32:45.684Z,56.10
2017-09-25T16:35:13.213Z,56.70
2017-09-25T16:37:40.752Z,56.90
2017-09-25T16:40:09.765Z,57.60
2017-09-25T16:42:37.263Z,57.90
2017-09-25T16:45:04.792Z,58.60
2017-09-25T16:47:33.093Z,58.90
2017-09-25T16:50:00.848Z,59.80
2017-09-25T16:52:29.847Z,60.20
2017-09-25T16:54:58.152Z,61.00
2017-09-25T16:57:26.072Z,61.00
2017-09-25T16:59:53.959Z,61.80
2017-09-25T17:02:21.875Z,62.30
2017-09-25T17:04:49.372Z,63.40
2017-09-25T17:07:17.623Z,63.40
2017-09-25T17:09:45.122Z,63.80
2017-09-25T17:12:13.064Z,64.20
2017-09-25T17:14:40.723Z,65.20
2017-09-25T17:17:09.244Z,65.50
2017-09-25T17:19:37.362Z,66.10
2017-09-25T17:22:05.433Z,66.70
2017-09-25T17:24:33.105Z,67.80
2017-09-25T17:27:01.643Z,67.70
2017-09-25T17:29:30.170Z,67.50
2017-09-25T17:31:58.748Z,68.10
2017-09-25T17:34:26.612Z,68.20
2017-09-25T17:36:55.199Z,68.30
2017-09-25T17:39:23.814Z,68.10
2017-09-25T17:41:52.390Z,68.60
2017-09-25T17:44:20.565Z,67.50
2017-09-25T17:46:48.828Z,67.80
2017-09-25T17:49:16.717Z,68.10
2017-09-25T17:51:45.405Z,67.50
2017-09-25T17:54:12.946Z,69.00
2017-09-25T17:56:41.511Z,69.10
2017-09-25T17:59:09.013Z,68.20
2017-09-25T18:01:36.540Z,67.30
2017-09-25T18:04:04.439Z,68.70
2017-09-25T18:06:33.486Z,68.10
2017-09-25T18:09:01.445Z,68.60
2017-09-25T18:11:28.945Z,69.10
2017-09-25T18:13:56.656Z,69.50
2017-09-25T18:16:24.445Z,70.60
2017-09-25T18:18:51.935Z,72.10
2017-09-25T18:21:20.586Z,72.70
2017-09-25T18:23:48.456Z,74.80
2017-09-25T18:26:15.963Z,75.60
2017-09-25T18:28:43.452Z,75.90
2017-09-25T18:31:10.974Z,76.70
2017-09-25T18:33:39.609Z,76.60
2017-09-25T18:36:07.137Z,77.00
2017-09-25T18:38:34.732Z,78.20
2017-09-25T18:41:02.257Z,79.30
2017-09-25T18:43:30.168Z,80.20
2017-09-25T18:45:58.851Z,79.50
2017-09-25T18:48:26.364Z,80.40
2017-09-25T18:50:54.649Z,82.20
2017-09-25T18:53:22.985Z,82.20
2017-09-25T18:55:50.912Z,81.60
2017-09-25T18:58:19.374Z,81.70
2017-09-25T19:00:47.662Z,82.40
2017-09-25T19:03:15.190Z,82.40
2017-09-25T19:05:42.736Z,83.00
2017-09-25T19:08:10.276Z,83.20
2017-09-25T19:10:38.161Z,83.70
2017-09-25T19:13:05.713Z,83.60
2017-09-25T19:15:34.028Z,83.70
2017-09-25T19:18:01.941Z,83.60
2017-09-25T19:20:29.435Z,83.60
2017-09-25T19:22:56.976Z,83.70
2017-09-25T19:25:25.277Z,83.40
2017-09-25T19:27:52.819Z,83.60
2017-09-25T19:30:20.345Z,83.40
2017-09-25T19:32:48.276Z,83.40
2017-09-25T19:35:16.300Z,83.70
2017-09-25T19:37:43.828Z,84.50
2017-09-25T19:40:12.225Z,84.60
2017-09-25T19:42:39.770Z,85.10
2017-09-25T19:45:07.283Z,84.80
2017-09-25T19:47:35.731Z,84.80
2017-09-25T19:50:03.300Z,85.00
2017-09-25T19:52:31.049Z,84.60
2017-09-25T19:58:08.772Z,84.30
2017-09-25T20:00:36.283Z,84.50
2017-09-25T20:03:04.603Z,84.50
2017-09-25T20:05:32.172Z,84.30
2017-09-25T20:07:59.681Z,84.50
2017-09-25T20:10:28.751Z,84.60
2017-09-25T20:12:56.307Z,83.10
2017-09-25T20:18:29.665Z,83.10
2017-09-25T20:20:57.481Z,83.50
2017-09-25T20:23:25.024Z,83.60
2017-09-25T20:25:52.525Z,83.20
2017-09-25T20:28:20.093Z,82.70
2017-09-25T20:30:47.648Z,83.10
2017-09-25T20:33:15.908Z,83.90
2017-09-25T20:35:43.581Z,83.20
2017-09-25T20:38:11.862Z,84.60
2017-09-25T20:40:43.986Z,85.10
2017-09-25T20:46:20.208Z,85.70
2017-09-25T20:48:48.485Z,86.50
2017-09-25T20:51:16.745Z,88.20
2017-09-25T20:53:44.284Z,88.20
2017-09-25T20:56:11.791Z,89.10
2017-09-25T20:58:40.154Z,89.80
2017-09-25T21:01:07.658Z,89.50
2017-09-25T21:03:35.189Z,90.00
2017-09-25T21:06:02.680Z,89.80
2017-09-25T21:08:30.187Z,90.40
2017-09-25T21:10:58.605Z,91.00
2017-09-25T21:13:26.112Z,90.20
2017-09-25T21:15:53.660Z,90.30
2017-09-25T21:18:21.151Z,90.70
2017-09-25T21:20:48.664Z,90.90
2017-09-25T21:23:16.964Z,90.90
2017-09-25T21:25:49.007Z,90.80
2017-09-25T21:28:16.936Z,90.80
2017-09-25T21:30:44.433Z,90.30
2017-09-25T21:33:11.976Z,90.80
2017-09-25T21:35:39.488Z,91.50
2017-09-25T21:38:07.022Z,92.10
2017-09-25T21:40:34.580Z,92.30
2017-09-25T21:43:02.477Z,92.10
2017-09-25T21:45:29.980Z,92.20
2017-09-25T21:47:57.526Z,92.50
2017-09-25T21:50:25.019Z,92.30
2017-09-25T21:52:52.558Z,93.10
2017-09-25T21:55:20.208Z,93.80
2017-09-25T21:57:47.751Z,94.40
2017-09-25T22:00:15.289Z,94.80
2017-09-25T22:02:42.820Z,94.70
2017-09-25T22:05:10.327Z,94.90
2017-09-25T22:07:38.640Z,95.30
2017-09-25T22:10:06.191Z,95.70
2017-09-25T22:12:33.697Z,95.60
2017-09-25T22:15:02.029Z,95.20
2017-09-25T22:17:29.529Z,95.00
2017-09-25T22:19:57.095Z,94.50
2017-09-25T22:22:24.595Z,94.60
2017-09-25T22:24:52.098Z,94.60
2017-09-25T22:27:19.645Z,94.60
2017-09-25T22:29:47.145Z,94.10
2017-09-25T22:32:15.052Z,94.00
2017-09-25T22:34:42.600Z,94.00
2017-09-25T22:37:10.099Z,92.90
2017-09-25T22:39:37.989Z,92.30
2017-09-25T22:42:06.283Z,92.60
2017-09-25T22:44:33.804Z,91.80
2017-09-25T22:47:01.736Z,91.60
2017-09-25T22:49:29.236Z,92.00
2017-09-25T22:51:56.771Z,92.30
2017-09-25T22:54:24.287Z,92.60
2017-09-25T22:56:51.816Z,93.20
2017-09-25T22:59:20.120Z,94.50
2017-09-25T23:01:47.926Z,94.80
2017-09-25T23:04:16.693Z,95.50
2017-09-25T23:06:44.245Z,95.40
2017-09-25T23:09:14.632Z,93.70
2017-09-25T23:11:53.781Z,92.80
2017-09-25T23:14:21.321Z,91.40
2017-09-25T23:16:48.819Z,91.30
2017-09-25T23:19:16.349Z,91.10
2017-09-25T23:21:44.242Z,90.00
2017-09-25T23:24:11.790Z,89.60
2017-09-25T23:26:39.721Z,91.20
2017-09-25T23:29:07.622Z,92.70
2017-09-25T23:31:51.985Z,93.50
2017-09-25T23:34:19.484Z,94.80
2017-09-25T23:36:46.994Z,94.60
2017-09-25T23:39:14.557Z,95.30
2017-09-25T23:41:42.061Z,95.90
2017-09-25T23:44:09.604Z,96.80
2017-09-25T23:46:37.142Z,97.10
2017-09-25T23:49:05.039Z,97.80
2017-09-25T23:51:32.610Z,96.80
2017-09-25T23:54:00.154Z,94.50
2017-09-25T23:56:27.832Z,93.90
2017-09-25T23:58:56.103Z,92.40
